Time;durP1;ratioP1;P1;durP2;ratioP2;P2;SDS_P1;SDS_P2;PMS_P1;PMS_P2;Temp;Humidity;BMP_temperature;BMP_pressure;BME280_temperature;BME280_humidity;BME280_pressure;Samples;Min_cycle;Max_cycle;Signal;HPM_P1;HPM_P2
2022/05/25 00:01:06;;;;;;;16.27;10.25;;;17.60;99.90;;;;;;5073922;28;20028;-55
2022/05/25 00:03:34;;;;;;;22.27;11.75;;;17.60;99.90;;;;;;5074019;28;20028;-55
2022/05/25 00:06:04;;;;;;;20.98;11.63;;;17.60;99.90;;;;;;5073753;28;20537;-55
2022/05/25 00:08:31;;;;;;;18.38;11.70;;;17.60;99.90;;;;;;5074427;28;20075;-55
2022/05/25 00:10:57;;;;;;;18.67;11.20;;;17.50;99.90;;;;;;5076670;28;20443;-55
2022/05/25 00:13:24;;;;;;;15.90;10.25;;;17.50;99.90;;;;;;5077827;28;20111;-55
2022/05/25 00:15:50;;;;;;;15.32;10.30;;;17.50;99.90;;;;;;5078080;28;20035;-55
2022/05/25 00:18:16;;;;;;;18.08;11.70;;;17.50;99.90;;;;;;5077646;28;20446;-55
2022/05/25 00:20:42;;;;;;;16.98;10.30;;;17.40;99.90;;;;;;5077881;28;20032;-55
2022/05/25 00:23:08;;;;;;;16.42;10.48;;;17.40;99.90;;;;;;5077679;28;20498;-55
2022/05/25 00:25:37;;;;;;;15.02;11.00;;;17.40;99.90;;;;;;5077884;28;20483;-55
2022/05/25 00:28:06;;;;;;;16.55;10.13;;;17.30;99.90;;;;;;5077605;28;20063;-55
2022/05/25 00:30:32;;;;;;;15.98;10.63;;;17.30;99.90;;;;;;5077582;28;20039;-55
2022/05/25 00:33:00;;;;;;;15.27;10.30;;;17.20;99.90;;;;;;5077496;28;20742;-55
2022/05/25 00:35:29;;;;;;;16.85;11.10;;;17.20;99.90;;;;;;5077531;28;20614;-55
2022/05/25 00:37:55;;;;;;;19.13;11.18;;;17.20;99.90;;;;;;5077418;28;20051;-55
2022/05/25 00:40:24;;;;;;;22.50;10.85;;;17.10;99.90;;;;;;5077649;28;20043;-55
2022/05/25 00:42:50;;;;;;;23.90;11.50;;;17.10;99.90;;;;;;5077333;28;20056;-55
2022/05/25 00:45:16;;;;;;;19.13;10.82;;;17.10;99.90;;;;;;5077453;28;20078;-55
2022/05/25 00:47:47;;;;;;;17.45;10.60;;;17.10;99.90;;;;;;5077233;28;20024;-55
2022/05/25 00:50:15;;;;;;;21.30;11.07;;;17.10;99.90;;;;;;5077312;28;20035;-55
2022/05/25 00:52:42;;;;;;;20.38;11.00;;;17.10;99.90;;;;;;5077140;28;20039;-55
2022/05/25 00:55:11;;;;;;;33.25;13.90;;;17.10;99.90;;;;;;5077162;28;20093;-55
2022/05/25 00:57:43;;;;;;;25.27;12.23;;;17.10;99.90;;;;;;5077279;28;20029;-55
2022/05/25 01:00:14;;;;;;;24.55;11.82;;;17.00;99.90;;;;;;5077237;28;20028;-55
2022/05/25 01:02:43;;;;;;;19.98;10.70;;;17.00;99.90;;;;;;5076861;28;20393;-55
2022/05/25 01:05:10;;;;;;;17.30;10.02;;;17.00;99.90;;;;;;5076846;28;20033;-55
2022/05/25 01:07:39;;;;;;;15.30;10.02;;;17.00;99.90;;;;;;5077095;28;20024;-55
2022/05/25 01:10:21;;;;;;;19.67;10.40;;;16.90;99.90;;;;;;5076846;28;20382;-55
2022/05/25 01:13:22;;;;;;;19.30;11.18;;;16.90;99.90;;;;;;5077031;28;20033;-55
2022/05/25 01:15:56;;;;;;;;;;;16.80;99.90;;;;;;5059740;28;20455;-55
2022/05/25 01:18:37;;;;;;;18.95;10.25;;;16.80;99.90;;;;;;5076633;28;19916;-55
2022/05/25 01:21:03;;;;;;;;;;;16.70;99.90;;;;;;5076773;28;20021;-55
2022/05/25 01:23:53;;;;;;;17.55;10.65;;;16.70;99.90;;;;;;5076498;28;19912;-55
2022/05/25 01:26:38;;;;;;;21.25;11.25;;;16.60;99.90;;;;;;5076754;28;20033;-55
2022/05/25 01:29:33;;;;;;;21.23;10.50;;;16.40;99.90;;;;;;5076506;28;20027;-55
2022/05/25 01:32:05;;;;;;;19.65;10.80;;;16.40;99.90;;;;;;5076483;28;20095;-55
2022/05/25 01:35:05;;;;;;;20.77;10.65;;;16.40;99.90;;;;;;5076636;28;20032;-55
2022/05/25 01:37:46;;;;;;;18.83;11.38;;;16.40;99.90;;;;;;5076204;28;20140;-55
2022/05/25 01:40:23;;;;;;;15.93;10.93;;;16.40;99.90;;;;;;5076241;28;20462;-55
2022/05/25 01:43:15;;;;;;;20.42;11.57;;;16.40;99.90;;;;;;5076582;28;20082;-55
2022/05/25 01:45:47;;;;;;;13.65;11.15;;;16.40;99.90;;;;;;5065794;28;20033;-55
2022/05/25 01:48:16;;;;;;;18.27;10.65;;;16.40;99.90;;;;;;5075935;28;20505;-55
2022/05/25 01:50:49;;;;;;;22.38;12.18;;;16.40;99.90;;;;;;5076282;28;20424;-55
2022/05/25 01:53:18;;;;;;;27.80;14.25;;;16.40;99.90;;;;;;5075830;28;20390;-55
2022/05/25 01:55:53;;;;;;;19.90;12.50;;;16.40;99.90;;;;;;5075990;28;20037;-55
2022/05/25 01:58:21;;;;;;;19.23;11.32;;;16.40;99.90;;;;;;5076000;28;20520;-55
2022/05/25 02:00:51;;;;;;;27.73;12.20;;;16.40;99.90;;;;;;5075991;28;20090;-55
2022/05/25 02:06:37;;;;;;;21.35;11.10;;;16.40;99.90;;;;;;5075566;28;20031;-55
2022/05/25 02:09:30;;;;;;;17.92;10.90;;;16.30;99.90;;;;;;5075832;28;20033;-55
2022/05/25 02:12:28;;;;;;;20.83;10.50;;;16.30;99.90;;;;;;5075818;28;20074;-55
2022/05/25 02:15:10;;;;;;;23.00;11.75;;;16.20;99.90;;;;;;5061244;28;20044;-55
2022/05/25 02:18:08;;;;;;;18.08;10.35;;;16.20;99.90;;;;;;5075490;28;20048;-55
2022/05/25 02:21:06;;;;;;;17.90;10.88;;;16.20;99.90;;;;;;5075536;28;20107;-55
2022/05/25 02:23:49;;;;;;;17.35;10.50;;;16.20;99.90;;;;;;5047860;28;20494;-55
2022/05/25 02:26:35;;;;;;;20.05;11.30;;;16.20;99.90;;;;;;5075524;28;20055;-55
2022/05/25 02:29:07;;;;;;;19.35;10.88;;;16.20;99.90;;;;;;5074902;28;20033;-55
2022/05/25 02:31:38;;;;;;;17.02;10.82;;;16.20;99.90;;;;;;5075500;28;20028;-55
2022/05/25 02:34:09;;;;;;;24.50;10.95;;;16.20;99.90;;;;;;5074809;28;20025;-55
2022/05/25 02:36:35;;;;;;;;;;;16.20;99.90;;;;;;5069141;28;20072;-55
2022/05/25 02:39:10;;;;;;;22.73;11.90;;;16.10;99.90;;;;;;5055327;28;20384;-55
2022/05/25 02:41:45;;;;;;;19.17;11.02;;;16.10;99.90;;;;;;5055124;28;20025;-55
2022/05/25 02:44:12;;;;;;;23.88;11.35;;;16.10;99.90;;;;;;5055397;28;20056;-55
2022/05/25 02:46:38;;;;;;;21.95;10.82;;;16.10;99.90;;;;;;5055153;28;20104;-55
2022/05/25 02:49:04;;;;;;;18.00;11.18;;;16.00;99.90;;;;;;5054871;28;20025;-55
2022/05/25 02:51:30;;;;;;;16.00;10.13;;;15.90;99.90;;;;;;5055067;28;20032;-55
2022/05/25 02:53:56;;;;;;;18.60;9.82;;;15.90;99.90;;;;;;5055060;28;20124;-55
2022/05/25 02:56:22;;;;;;;19.63;10.00;;;15.90;99.90;;;;;;5054759;28;20029;-55
2022/05/25 02:58:48;;;;;;;18.35;10.57;;;15.90;99.90;;;;;;5055027;28;20063;-55
2022/05/25 03:01:14;;;;;;;22.35;10.60;;;15.90;99.90;;;;;;5055121;28;20033;-55
2022/05/25 03:03:40;;;;;;;19.75;10.65;;;15.80;99.90;;;;;;5054683;28;20039;-55
2022/05/25 03:06:07;;;;;;;17.30;9.77;;;15.80;99.90;;;;;;5054773;28;20021;-55
2022/05/25 03:08:35;;;;;;;17.63;10.70;;;15.80;99.90;;;;;;5054747;28;20438;-55
2022/05/25 03:11:03;;;;;;;17.70;9.98;;;15.80;99.90;;;;;;5054212;28;20544;-55
2022/05/25 03:13:29;;;;;;;19.50;10.27;;;15.80;99.90;;;;;;5054650;28;20025;-55
2022/05/25 03:16:05;;;;;;;19.30;10.48;;;15.70;99.90;;;;;;5054458;28;20115;-55
2022/05/25 03:18:31;;;;;;;20.42;11.40;;;15.80;99.90;;;;;;5054245;28;20032;-55
2022/05/25 03:20:57;;;;;;;22.13;10.77;;;15.80;99.90;;;;;;5054568;28;20074;-55
2022/05/25 03:23:23;;;;;;;19.92;11.05;;;15.60;99.90;;;;;;5054316;28;20179;-55
2022/05/25 03:25:49;;;;;;;17.08;10.65;;;15.60;99.90;;;;;;5054461;28;20068;-55
2022/05/25 03:28:15;;;;;;;23.92;11.23;;;15.60;99.90;;;;;;5054267;28;20088;-55
2022/05/25 03:30:43;;;;;;;22.75;10.60;;;15.60;99.90;;;;;;5054210;28;20028;-55
2022/05/25 03:33:09;;;;;;;21.38;10.63;;;15.50;99.90;;;;;;5054295;28;20033;-55
2022/05/25 03:35:36;;;;;;;20.33;10.40;;;15.50;99.90;;;;;;5054464;28;20032;-55
2022/05/25 03:38:02;;;;;;;19.70;10.15;;;15.50;99.90;;;;;;5054006;28;20175;-55
2022/05/25 03:40:29;;;;;;;16.42;9.07;;;15.50;99.90;;;;;;5036132;28;20477;-55
2022/05/25 03:42:55;;;;;;;19.85;10.43;;;15.60;99.90;;;;;;5054028;28;20037;-55
2022/05/25 03:45:21;;;;;;;18.17;10.65;;;15.60;99.90;;;;;;5060133;28;20025;-55
2022/05/25 03:47:47;;;;;;;19.35;10.45;;;15.70;99.90;;;;;;5060695;28;20026;-55
2022/05/25 03:50:13;;;;;;;17.85;11.02;;;15.70;99.90;;;;;;5060900;28;20471;-55
2022/05/25 03:52:40;;;;;;;20.40;11.10;;;15.80;99.90;;;;;;5060392;28;20209;-55
2022/05/25 03:55:07;;;;;;;17.75;10.15;;;15.80;99.90;;;;;;5060871;28;20032;-55
2022/05/25 03:57:33;;;;;;;24.58;10.38;;;15.80;99.90;;;;;;5060835;28;20162;-55
2022/05/25 03:59:59;;;;;;;18.85;9.57;;;15.80;99.90;;;;;;5060609;28;20120;-55
2022/05/25 04:02:25;;;;;;;21.80;10.27;;;15.90;99.90;;;;;;5060760;28;20032;-55
2022/05/25 04:05:07;;;;;;;19.95;9.75;;;16.00;99.90;;;;;;5060396;28;20037;-55
2022/05/25 04:08:00;;;;;;;20.40;9.95;;;16.10;99.90;;;;;;5060598;28;20107;-55
2022/05/25 04:10:27;;;;;;;21.92;10.00;;;16.20;99.90;;;;;;5057904;28;20124;-55
2022/05/25 04:12:53;;;;;;;22.45;9.93;;;16.30;99.90;;;;;;5060587;28;20029;-55
2022/05/25 04:15:23;;;;;;;25.20;10.45;;;16.40;99.90;;;;;;5060494;28;20036;-55
2022/05/25 04:17:49;;;;;;;22.75;9.70;;;16.50;99.90;;;;;;5060501;28;20483;-55
2022/05/25 04:20:16;;;;;;;22.08;10.00;;;16.50;99.90;;;;;;5061016;28;20381;-55
2022/05/25 04:22:43;;;;;;;17.23;9.45;;;16.70;99.90;;;;;;5060263;28;20481;-55
2022/05/25 04:25:12;;;;;;;24.75;10.20;;;16.80;99.90;;;;;;5060589;28;20025;-55
2022/05/25 04:27:40;;;;;;;20.40;10.80;;;16.90;99.90;;;;;;5060530;28;20376;-55
2022/05/25 04:30:08;;;;;;;18.50;10.70;;;17.00;99.90;;;;;;5060342;28;20108;-55
2022/05/25 04:32:34;;;;;;;20.90;10.20;;;17.10;99.90;;;;;;5060813;28;20056;-55
2022/05/25 04:35:00;;;;;;;17.60;8.45;;;17.20;99.90;;;;;;5060099;28;20040;-55
2022/05/25 04:40:12;;;;;;;23.50;10.35;;;17.40;99.90;;;;;;5060316;28;20063;-55
2022/05/25 04:42:40;;;;;;;21.73;9.40;;;17.50;99.90;;;;;;5060293;28;20032;-55
2022/05/25 04:45:06;;;;;;;32.05;10.88;;;17.50;99.90;;;;;;5060587;28;20032;-55
2022/05/25 04:47:34;;;;;;;27.73;11.55;;;17.70;99.90;;;;;;5060348;28;20013;-55
2022/05/25 04:50:00;;;;;;;23.42;11.13;;;17.70;99.90;;;;;;5060136;28;20037;-55
2022/05/25 04:52:27;;;;;;;34.13;11.07;;;17.70;99.90;;;;;;5060098;28;20456;-55
2022/05/25 04:54:53;;;;;;;28.08;10.05;;;17.80;99.90;;;;;;5059758;28;20107;-55
2022/05/25 04:57:20;;;;;;;26.98;10.38;;;18.00;99.90;;;;;;5056515;28;20025;-55
2022/05/25 04:59:53;;;;;;;23.13;12.23;;;18.10;99.90;;;;;;5057162;28;20029;-55
2022/05/25 05:02:20;;;;;;;30.52;11.20;;;18.10;99.90;;;;;;5056948;28;20036;-55
2022/05/25 05:04:47;;;;;;;23.30;11.20;;;18.20;99.90;;;;;;5056641;28;20032;-55
2022/05/25 05:07:15;;;;;;;21.15;10.95;;;18.40;99.90;;;;;;5057113;28;20025;-55
2022/05/25 05:09:43;;;;;;;28.83;11.00;;;18.50;99.90;;;;;;5056803;28;20027;-55
2022/05/25 05:12:09;;;;;;;28.60;11.80;;;18.60;99.90;;;;;;5057540;28;20375;-55
2022/05/25 05:14:37;;;;;;;34.00;12.32;;;18.70;99.90;;;;;;5072560;28;20083;-55
2022/05/25 05:17:05;;;;;;;25.70;10.65;;;18.70;99.90;;;;;;5056406;28;20044;-55
2022/05/25 05:19:46;;;;;;;29.90;10.80;;;18.80;99.90;;;;;;5038503;28;20087;-55
2022/05/25 05:22:17;;;;;;;31.38;11.10;;;19.00;99.90;;;;;;5038671;28;20032;-55
2022/05/25 05:24:43;;;;;;;21.85;10.05;;;19.20;99.90;;;;;;5056497;28;20147;-55
2022/05/25 05:27:10;;;;;;;37.80;13.00;;;19.30;99.90;;;;;;5056374;28;20029;-55
2022/05/25 05:29:36;;;;;;;35.60;13.50;;;19.40;99.90;;;;;;5054294;28;20132;-55
2022/05/25 05:32:02;;;;;;;38.78;13.20;;;19.50;99.90;;;;;;5056160;28;20053;-55
2022/05/25 05:34:40;;;;;;;23.80;11.23;;;19.60;99.90;;;;;;5046555;28;20032;-55
2022/05/25 05:37:19;;;;;;;25.70;11.15;;;19.70;99.90;;;;;;5059424;28;20106;-55
2022/05/25 05:39:49;;;;;;;30.70;11.25;;;19.80;99.90;;;;;;5076271;28;20028;-55
2022/05/25 05:42:18;;;;;;;22.08;9.88;;;19.90;99.90;;;;;;5076002;28;20036;-55
2022/05/25 05:45:01;;;;;;;30.90;10.98;;;20.00;99.90;;;;;;5076150;28;20029;-55
2022/05/25 05:47:39;;;;;;;34.10;11.50;;;20.00;99.90;;;;;;5075791;28;20040;-55
2022/05/25 05:50:06;;;;;;;31.85;9.82;;;20.30;99.90;;;;;;5076143;28;20020;-55
2022/05/25 05:52:36;;;;;;;25.08;9.93;;;20.40;99.90;;;;;;5074001;28;20020;-55
2022/05/25 05:55:04;;;;;;;34.58;11.63;;;20.60;99.90;;;;;;5064784;28;20493;-55
2022/05/25 05:57:33;;;;;;;25.35;9.07;;;20.70;99.90;;;;;;5063260;28;20548;-55
2022/05/25 06:00:08;;;;;;;29.38;9.40;;;20.70;99.90;;;;;;5068382;28;20044;-55
2022/05/25 06:02:38;;;;;;;29.92;9.55;;;20.60;99.90;;;;;;5070670;28;20517;-55
2022/05/25 06:05:05;;;;;;;22.27;9.38;;;20.90;99.90;;;;;;5064435;28;20021;-55
2022/05/25 06:07:31;;;;;;;23.08;9.48;;;21.10;99.90;;;;;;5069444;28;20037;-55
2022/05/25 06:09:57;;;;;;;22.85;8.10;;;21.20;99.90;;;;;;5065387;28;20062;-55
2022/05/25 06:12:23;;;;;;;55.58;11.35;;;21.40;99.90;;;;;;5064373;28;20043;-55
2022/05/25 06:14:49;;;;;;;44.50;10.13;;;21.50;99.90;;;;;;5076527;28;20028;-55
2022/05/25 06:20:03;;;;;;;31.23;8.85;;;21.70;99.90;;;;;;5062073;28;20037;-55
2022/05/25 06:22:31;;;;;;;27.67;8.68;;;21.90;99.90;;;;;;5064861;28;20291;-55
2022/05/25 06:24:57;;;;;;;19.85;8.63;;;22.00;98.60;;;;;;5069827;28;20386;-55
2022/05/25 06:27:23;;;;;;;25.95;9.18;;;22.20;98.00;;;;;;5064896;28;20032;-55
2022/05/25 06:29:49;;;;;;;20.00;8.00;;;22.40;95.50;;;;;;5068068;28;20023;-55
2022/05/25 06:32:18;;;;;;;24.00;7.25;;;22.60;95.80;;;;;;5067358;28;20215;-56
2022/05/25 06:34:48;;;;;;;20.90;7.78;;;22.80;94.20;;;;;;5066451;28;20028;-55
2022/05/25 06:37:20;;;;;;;39.60;8.90;;;23.00;92.60;;;;;;5066362;28;20091;-55
2022/05/25 06:39:46;;;;;;;22.88;8.90;;;23.10;84.40;;;;;;5070330;28;20024;-56
2022/05/25 06:42:12;;;;;;;20.02;6.85;;;23.10;88.80;;;;;;5062675;28;20159;-55
2022/05/25 06:44:47;;;;;;;24.63;7.00;;;23.40;88.60;;;;;;5059071;28;20106;-56
2022/05/25 06:47:16;;;;;;;35.55;8.85;;;23.70;74.10;;;;;;5071578;28;20159;-56
2022/05/25 06:49:42;;;;;;;42.70;8.98;;;24.00;82.60;;;;;;5072744;28;20059;-56
2022/05/25 06:52:10;;;;;;;52.03;9.63;;;24.10;72.30;;;;;;5065775;28;20033;-56
2022/05/25 06:54:37;;;;;;;20.30;7.00;;;24.20;73.00;;;;;;5066096;28;20020;-56
2022/05/25 06:57:03;;;;;;;23.13;7.47;;;24.40;76.10;;;;;;5067234;28;20028;-56
2022/05/25 06:59:29;;;;;;;17.52;6.80;;;24.80;69.60;;;;;;5084528;28;20032;-56
2022/05/25 07:01:55;;;;;;;20.02;5.22;;;25.10;71.10;;;;;;5073807;28;20039;-56
2022/05/25 07:04:21;;;;;;;15.43;5.68;;;25.40;60.90;;;;;;5063965;28;20028;-56
2022/05/25 07:06:47;;;;;;;18.05;6.35;;;25.70;59.20;;;;;;5073727;28;20119;-56
2022/05/25 07:09:14;;;;;;;21.02;6.22;;;25.90;60.20;;;;;;5076078;28;20123;-56
2022/05/25 07:11:42;;;;;;;17.90;4.75;;;26.20;59.70;;;;;;5068553;28;20037;-56
2022/05/25 07:14:10;;;;;;;14.98;6.07;;;26.60;56.20;;;;;;5058097;28;20032;-56
2022/05/25 07:16:36;;;;;;;21.70;5.75;;;27.10;58.70;;;;;;5074653;28;20079;-56
2022/05/25 07:19:03;;;;;;;31.58;7.05;;;27.30;57.00;;;;;;5059112;28;20444;-56
2022/05/25 07:21:31;;;;;;;20.67;6.15;;;27.60;54.40;;;;;;5069847;28;20036;-56
2022/05/25 07:23:59;;;;;;;25.35;6.68;;;28.00;52.90;;;;;;5062695;28;20075;-56
2022/05/25 07:26:28;;;;;;;23.70;6.78;;;28.00;51.50;;;;;;5071985;28;20063;-56
2022/05/25 07:28:53;;;;;;;16.75;5.65;;;28.10;53.00;;;;;;5073146;28;20021;-56
2022/05/25 07:31:53;;;;;;;17.67;4.97;;;28.30;52.80;;;;;;5066379;28;20021;-56
2022/05/25 07:34:28;;;;;;;18.40;5.53;;;28.80;56.40;;;;;;5068200;28;20025;-56
2022/05/25 07:36:58;;;;;;;35.90;7.95;;;29.30;53.00;;;;;;5069632;28;20051;-56
2022/05/25 07:39:39;;;;;;;36.88;6.60;;;29.60;50.90;;;;;;5095287;28;20055;-56
2022/05/25 07:42:06;;;;;;;25.67;6.90;;;29.80;48.90;;;;;;5094875;28;20400;-56
2022/05/25 07:44:52;;;;;;;25.65;7.65;;;30.20;48.70;;;;;;5091000;28;20032;-56
2022/05/25 07:47:19;;;;;;;31.33;6.60;;;30.40;48.70;;;;;;5090644;28;20043;-56
2022/05/25 07:49:45;;;;;;;28.08;7.53;;;30.60;46.40;;;;;;5091349;28;20024;-56
2022/05/25 07:52:11;;;;;;;22.50;7.93;;;30.80;49.00;;;;;;5103695;28;20396;-56
2022/05/25 07:54:41;;;;;;;23.92;6.95;;;31.10;48.00;;;;;;5092207;28;20027;-56
2022/05/25 07:57:07;;;;;;;19.83;5.78;;;31.20;46.30;;;;;;5098516;28;20383;-56
2022/05/25 07:59:34;;;;;;;29.95;7.47;;;31.40;45.60;;;;;;5081881;28;20120;-56
2022/05/25 08:08:44;;;;;;;21.05;5.50;;;31.90;48.90;;;;;;5034510;28;20041;-56
2022/05/25 08:11:17;;;;;;;30.83;5.78;;;32.20;44.20;;;;;;5024285;28;20213;-56
2022/05/25 08:13:47;;;;;;;29.60;7.22;;;32.40;46.30;;;;;;5029344;28;20042;-56
2022/05/25 08:16:14;;;;;;;28.77;7.05;;;32.50;45.40;;;;;;5025369;28;20459;-57
2022/05/25 08:18:40;;;;;;;15.45;5.32;;;32.30;44.40;;;;;;5026325;28;20192;-57
2022/05/25 08:21:06;;;;;;;29.42;7.95;;;32.70;43.40;;;;;;5021812;28;20124;-57
2022/05/25 08:23:33;;;;;;;22.33;6.50;;;32.10;43.40;;;;;;5026430;28;20037;-57
2022/05/25 08:25:59;;;;;;;14.18;5.03;;;32.10;43.70;;;;;;5027185;28;20133;-56
2022/05/25 08:28:24;;;;;;;17.42;5.18;;;32.50;44.60;;;;;;5025331;28;20024;-57
2022/05/25 08:30:51;;;;;;;12.52;4.15;;;32.10;45.80;;;;;;5037757;28;20106;-57
2022/05/25 08:33:20;;;;;;;12.88;4.70;;;32.40;46.70;;;;;;5046165;28;20033;-57
2022/05/25 08:35:49;;;;;;;12.15;5.32;;;32.60;44.90;;;;;;5033680;28;20348;-57
2022/05/25 08:38:16;;;;;;;12.20;4.07;;;33.10;43.50;;;;;;5040020;28;20054;-57
2022/05/25 08:40:43;;;;;;;16.58;5.32;;;33.60;45.40;;;;;;5096264;28;20033;-57
2022/05/25 08:43:24;;;;;;;22.25;5.70;;;33.70;43.10;;;;;;5095312;28;20064;-57
2022/05/25 08:46:04;;;;;;;14.85;4.35;;;34.30;44.20;;;;;;5095565;28;20024;-57
2022/05/25 08:48:32;;;;;;;13.52;4.22;;;34.50;40.00;;;;;;5093115;28;20020;-57
2022/05/25 08:51:03;;;;;;;16.70;4.05;;;34.20;39.70;;;;;;5076702;28;20036;-57
2022/05/25 08:53:30;;;;;;;12.63;4.22;;;34.30;40.60;;;;;;5084862;28;20048;-57
2022/05/25 08:56:34;;;;;;;14.23;4.53;;;34.50;39.60;;;;;;5102964;28;20058;-57
2022/05/25 08:59:29;;;;;;;15.15;5.05;;;34.20;39.20;;;;;;5089625;28;20615;-57
2022/05/25 09:02:15;;;;;;;11.25;4.57;;;34.10;39.60;;;;;;5049755;28;20485;-57
2022/05/25 09:04:53;;;;;;;10.20;4.50;;;33.50;44.80;;;;;;5077924;28;20035;-57
2022/05/25 09:07:41;;;;;;;20.70;5.00;;;32.90;44.00;;;;;;5089293;28;20023;-57
2022/05/25 09:10:08;;;;;;;12.63;4.30;;;32.90;44.20;;;;;;5093902;28;20046;-57
2022/05/25 09:12:52;;;;;;;12.45;4.47;;;32.90;46.10;;;;;;5092837;28;20028;-57
2022/05/25 09:15:35;;;;;;;12.10;3.80;;;33.30;44.60;;;;;;5086036;28;20032;-58
2022/05/25 09:18:11;;;;;;;14.00;4.25;;;33.50;40.10;;;;;;5081553;28;20063;-58
2022/05/25 09:20:44;;;;;;;28.02;5.93;;;33.70;36.70;;;;;;5086334;28;20047;-58
2022/05/25 09:23:12;;;;;;;14.63;4.15;;;34.00;38.10;;;;;;5067310;28;20119;-58
2022/05/25 09:25:38;;;;;;;16.30;5.47;;;34.20;37.80;;;;;;5090028;28;20081;-58
2022/05/25 09:28:19;;;;;;;15.60;5.82;;;34.50;38.70;;;;;;5097156;28;20079;-58
2022/05/25 09:30:48;;;;;;;17.17;4.97;;;34.90;37.20;;;;;;5089837;28;20481;-58
2022/05/25 09:33:37;;;;;;;14.15;4.38;;;34.60;37.30;;;;;;5093477;28;20030;-58
2022/05/25 09:36:21;;;;;;;15.07;4.85;;;34.40;38.00;;;;;;5084650;28;20036;-58
2022/05/25 09:39:04;;;;;;;19.38;6.18;;;34.70;38.20;;;;;;5089942;28;20044;-58
2022/05/25 09:41:31;;;;;;;14.48;4.47;;;34.90;40.10;;;;;;5089572;28;20043;-58
2022/05/25 09:44:02;;;;;;;14.90;4.32;;;35.10;36.60;;;;;;5083563;28;20630;-58
2022/05/25 09:47:05;;;;;;;17.67;4.93;;;35.00;35.80;;;;;;5080062;28;20521;-58
2022/05/25 09:49:37;;;;;;;21.42;5.88;;;35.40;35.70;;;;;;5086296;28;20024;-58
2022/05/25 09:52:11;;;;;;;14.95;4.60;;;35.20;37.10;;;;;;5084481;28;20033;-58
2022/05/25 09:54:49;;;;;;;16.45;5.22;;;35.40;36.10;;;;;;5075699;28;20363;-58
2022/05/25 09:57:35;;;;;;;13.90;4.75;;;35.50;35.50;;;;;;5103108;28;20398;-58
2022/05/25 10:00:06;;;;;;;21.83;4.75;;;35.50;35.60;;;;;;5092973;28;20028;-58
2022/05/25 10:02:37;;;;;;;;;;;35.60;38.40;;;;;;5086071;28;20040;-58
2022/05/25 10:05:27;;;;;;;33.53;5.97;;;35.50;35.50;;;;;;5094666;28;19914;-58
2022/05/25 10:08:12;;;;;;;21.25;5.65;;;34.70;34.30;;;;;;5086884;28;20017;-58
2022/05/25 10:11:00;;;;;;;18.75;5.05;;;33.80;37.00;;;;;;5086601;28;20052;-58
2022/05/25 10:13:36;;;;;;;14.32;5.22;;;34.50;37.80;;;;;;5084818;28;20107;-58
2022/05/25 10:16:23;;;;;;;12.45;4.75;;;35.10;40.10;;;;;;5093757;28;20097;-58
2022/05/25 10:18:51;;;;;;;31.57;8.23;;;34.70;36.20;;;;;;5090387;28;20031;-58
2022/05/25 10:21:29;;;;;;;16.17;4.85;;;33.70;37.50;;;;;;5094465;28;20026;-58
2022/05/25 10:23:57;;;;;;;24.08;5.88;;;34.70;40.60;;;;;;5089034;28;20111;-58
2022/05/25 10:26:40;;;;;;;13.88;5.30;;;35.30;37.90;;;;;;5093824;28;20469;-58
2022/05/25 10:29:10;;;;;;;16.20;5.35;;;35.90;37.00;;;;;;5087442;28;20024;-58
2022/05/25 10:37:39;;;;;;;11.70;4.70;;;36.30;37.60;;;;;;5051808;28;20049;-59
2022/05/25 10:40:08;;;;;;;15.67;5.00;;;36.90;32.60;;;;;;5052274;28;20156;-59
2022/05/25 10:42:44;;;;;;;30.27;6.90;;;36.60;31.80;;;;;;5044997;28;20033;-58
2022/05/25 10:45:19;;;;;;;13.88;5.05;;;36.20;33.40;;;;;;5026711;28;20033;-58
2022/05/25 10:47:57;;;;;;;16.65;5.88;;;36.80;34.20;;;;;;5051030;28;20028;-58
2022/05/25 10:50:58;;;;;;;26.17;6.60;;;36.80;33.90;;;;;;5052365;28;20368;-58
2022/05/25 10:54:44;;;;;;;16.83;5.80;;;35.70;34.70;;;;;;5050103;28;20045;-58
2022/05/25 10:57:09;;;;;;;16.48;5.25;;;35.20;35.20;;;;;;5032407;28;20038;-58
2022/05/25 11:00:05;;;;;;;29.98;5.72;;;36.00;35.30;;;;;;5017020;28;20394;-58
2022/05/25 11:02:52;;;;;;;21.52;5.88;;;36.30;35.70;;;;;;5038273;28;20033;-58
2022/05/25 11:05:44;;;;;;;14.27;5.70;;;37.00;36.40;;;;;;5058901;28;20035;-58
2022/05/25 11:08:16;;;;;;;19.27;5.32;;;37.40;34.00;;;;;;5085557;28;20041;-58
2022/05/25 11:11:06;;;;;;;14.60;5.40;;;37.50;33.20;;;;;;5097060;28;20619;-58
2022/05/25 11:13:51;;;;;;;21.48;5.82;;;37.60;32.50;;;;;;5090964;28;20027;-58
2022/05/25 11:16:38;;;;;;;13.02;4.40;;;37.10;33.80;;;;;;5080773;28;20447;-58
2022/05/25 11:19:31;;;;;;;22.88;5.85;;;37.30;31.20;;;;;;5085225;28;20350;-58
2022/05/25 11:22:21;;;;;;;17.67;5.25;;;37.40;32.40;;;;;;5092189;28;20035;-58
2022/05/25 11:25:03;;;;;;;22.77;6.47;;;37.40;31.20;;;;;;5090605;28;20028;-58
2022/05/25 11:27:57;;;;;;;13.23;4.53;;;37.40;32.50;;;;;;5087942;28;20021;-58
2022/05/25 11:30:45;;;;;;;15.35;5.35;;;37.40;32.60;;;;;;5090536;28;20107;-58
2022/05/25 11:33:51;;;;;;;20.23;5.65;;;37.20;30.80;;;;;;5089015;28;20078;-58
2022/05/25 11:37:00;;;;;;;19.55;5.20;;;36.70;31.30;;;;;;5081789;28;20401;-58
2022/05/25 11:39:32;;;;;;;19.67;4.90;;;35.70;31.50;;;;;;5066860;28;20216;-58
2022/05/25 11:42:39;;;;;;;15.25;4.93;;;35.50;33.00;;;;;;5055066;28;20029;-58
2022/05/25 11:45:31;;;;;;;19.80;5.68;;;34.70;32.60;;;;;;5063846;28;20350;-58
2022/05/25 11:48:00;;;;;;;20.83;6.50;;;35.10;36.10;;;;;;5076687;28;20051;-58
2022/05/25 11:50:42;;;;;;;21.02;6.38;;;35.80;34.20;;;;;;5070019;28;20111;-58
2022/05/25 11:53:29;;;;;;;28.48;6.32;;;36.30;32.50;;;;;;5074104;28;20120;-58
2022/05/25 11:56:23;;;;;;;12.43;4.38;;;36.50;32.50;;;;;;5076497;28;20442;-58
2022/05/25 11:59:45;;;;;;;17.75;5.15;;;36.80;31.40;;;;;;5062176;28;20029;-58
2022/05/25 12:02:28;;;;;;;18.42;5.18;;;37.10;31.40;;;;;;5023687;28;20095;-58
2022/05/25 12:05:13;;;;;;;13.65;5.72;;;37.40;32.00;;;;;;5030034;28;20033;-58
2022/05/25 12:08:05;;;;;;;18.80;5.20;;;37.60;30.60;;;;;;5032237;28;20046;-58
2022/05/25 12:10:34;;;;;;;13.40;5.25;;;37.10;32.00;;;;;;5019947;28;20538;-58
2022/05/25 12:13:12;;;;;;;22.20;5.90;;;37.30;33.00;;;;;;5027736;28;20463;-58
2022/05/25 12:15:48;;;;;;;20.85;6.40;;;37.60;31.20;;;;;;5032481;28;20069;-58
2022/05/25 12:18:39;;;;;;;16.58;5.30;;;37.60;30.80;;;;;;5025453;28;20404;-58
2022/05/25 12:21:31;;;;;;;28.30;7.70;;;37.40;30.90;;;;;;5027017;28;20033;-58
2022/05/25 12:24:29;;;;;;;21.63;5.22;;;37.90;31.40;;;;;;5016098;28;20863;-58
2022/05/25 12:26:57;;;;;;;15.27;5.13;;;38.10;32.00;;;;;;5032720;28;20041;-58
2022/05/25 12:29:33;;;;;;;18.48;5.53;;;38.00;30.80;;;;;;5032638;28;20025;-58
2022/05/25 12:31:59;;;;;;;18.67;5.47;;;37.90;33.40;;;;;;5040925;28;20124;-58
2022/05/25 12:34:32;;;;;;;20.30;5.72;;;37.60;31.50;;;;;;5080004;28;20438;-58
2022/05/25 12:36:59;;;;;;;22.70;6.10;;;37.50;30.80;;;;;;5068135;28;20557;-58
2022/05/25 12:39:46;;;;;;;18.98;5.30;;;37.80;31.80;;;;;;5082561;28;20032;-58
2022/05/25 12:42:26;;;;;;;15.07;5.10;;;36.90;30.50;;;;;;5084546;28;20098;-58
2022/05/25 12:50:53;;;;;;;20.38;5.80;;;37.50;31.20;;;;;;5079141;28;20050;-58
2022/05/25 12:53:29;;;;;;;16.05;5.07;;;37.60;32.30;;;;;;5088104;28;20482;-58
2022/05/25 12:56:15;;;;;;;17.25;5.38;;;37.60;32.10;;;;;;5084739;28;20031;-58
2022/05/25 12:58:43;;;;;;;15.65;5.15;;;37.10;32.50;;;;;;5101852;28;20119;-58
2022/05/25 13:01:27;;;;;;;23.73;6.05;;;36.80;35.00;;;;;;5088531;28;20036;-58
2022/05/25 13:03:59;;;;;;;18.17;6.05;;;36.90;36.30;;;;;;5084434;28;20028;-58
2022/05/25 13:06:37;;;;;;;22.52;5.75;;;36.70;33.60;;;;;;5076908;28;20048;-58
2022/05/25 13:09:30;;;;;;;21.17;5.53;;;36.90;32.10;;;;;;5076463;28;20041;-58
2022/05/25 13:11:56;;;;;;;26.70;6.88;;;36.60;35.60;;;;;;5080425;28;20028;-58
2022/05/25 13:14:29;;;;;;;23.25;6.43;;;36.40;33.40;;;;;;5089668;28;20032;-58
2022/05/25 13:16:58;;;;;;;22.92;6.95;;;36.50;37.10;;;;;;5092439;28;20489;-58
2022/05/25 13:19:33;;;;;;;;;;;36.70;34.30;;;;;;5086981;28;20036;-58
2022/05/25 13:22:21;;;;;;;23.10;5.75;;;36.50;38.60;;;;;;5086033;28;19920;-58
2022/05/25 13:25:10;;;;;;;16.55;7.10;;;36.30;36.10;;;;;;5095201;28;20070;-58
2022/05/25 13:27:47;;;;;;;20.63;5.67;;;35.70;39.50;;;;;;5102161;28;20098;-58
2022/05/25 13:30:40;;;;;;;28.00;6.60;;;35.50;37.20;;;;;;5103793;28;20401;-58
2022/05/25 13:33:27;;;;;;;46.78;9.88;;;35.60;37.50;;;;;;5076398;28;20032;-58
2022/05/25 13:35:56;;;;;;;19.33;5.60;;;35.30;41.20;;;;;;5075543;28;20147;-58